Terminal Aerodrome Forecast
Issued by NWS Shreveport, LA

Home | Current Version | Previous Version | Text Only | Print | Product List | Glossary On
Versions: 1 2 3 4 5 6 7 8 9 10 11 12 13 14 15 16
000
FTUS44 KSHV 220520
TAFSHV
TAF
KSHV 220520Z 2206/2306 17003KT P6SM SCT250
      TEMPO 2209/2212 BKN008
     FM221200 15003KT 5SM BR SCT008 SCT015
      TEMPO 2212/2215 P6SM NSW BKN015
     FM221500 15005KT P6SM SCT025 SCT035
     FM221800 15007KT P6SM SCT035 SCT045
     FM230000 13005KT P6SM SCT050=

USA.gov is the U.S. government's official web portal to all federal, state and local government web resources and services.